sensor_id;sensor_type;location;lat;lon;timestamp;temperature;humidity
18658;DHT22;9458;50.942;5.074;2022-12-18T00:02:01;-2.20;99.90
18658;DHT22;9458;50.942;5.074;2022-12-18T00:04:29;-2.30;99.90
18658;DHT22;9458;50.942;5.074;2022-12-18T00:06:58;-2.20;99.90
18658;DHT22;9458;50.942;5.074;2022-12-18T00:09:26;-2.20;99.90
18658;DHT22;9458;50.942;5.074;2022-12-18T00:11:55;-2.30;99.90
18658;DHT22;9458;50.942;5.074;2022-12-18T00:14:24;-2.20;99.90
18658;DHT22;9458;50.942;5.074;2022-12-18T00:16:52;-2.30;99.90
18658;DHT22;9458;50.942;5.074;2022-12-18T00:19:21;-2.30;99.90
18658;DHT22;9458;50.942;5.074;2022-12-18T00:21:49;-2.40;99.90
18658;DHT22;9458;50.942;5.074;2022-12-18T00:24:16;-2.40;99.90
18658;DHT22;9458;50.942;5.074;2022-12-18T00:26:44;-2.30;99.90
18658;DHT22;9458;50.942;5.074;2022-12-18T00:29:13;-2.40;99.90
18658;DHT22;9458;50.942;5.074;2022-12-18T00:31:42;-2.40;99.90
18658;DHT22;9458;50.942;5.074;2022-12-18T00:34:11;-2.40;99.90
18658;DHT22;9458;50.942;5.074;2022-12-18T00:36:42;-2.40;99.90
18658;DHT22;9458;50.942;5.074;2022-12-18T00:39:11;-2.40;99.90
18658;DHT22;9458;50.942;5.074;2022-12-18T00:41:40;-2.40;99.90
18658;DHT22;9458;50.942;5.074;2022-12-18T00:44:25;-2.40;99.90
18658;DHT22;9458;50.942;5.074;2022-12-18T00:46:53;-2.40;99.90
18658;DHT22;9458;50.942;5.074;2022-12-18T00:49:20;-2.40;99.90
18658;DHT22;9458;50.942;5.074;2022-12-18T00:51:51;-2.40;99.90
18658;DHT22;9458;50.942;5.074;2022-12-18T00:54:20;-2.40;99.90
18658;DHT22;9458;50.942;5.074;2022-12-18T00:56:48;-2.40;99.90
18658;DHT22;9458;50.942;5.074;2022-12-18T00:59:17;-2.40;99.90
18658;DHT22;9458;50.942;5.074;2022-12-18T01:01:47;-2.50;99.90
18658;DHT22;9458;50.942;5.074;2022-12-18T01:04:21;-2.50;99.90
18658;DHT22;9458;50.942;5.074;2022-12-18T01:06:51;-2.50;99.90
18658;DHT22;9458;50.942;5.074;2022-12-18T01:09:19;-2.50;99.90
18658;DHT22;9458;50.942;5.074;2022-12-18T01:11:48;-2.50;99.90
18658;DHT22;9458;50.942;5.074;2022-12-18T01:14:20;-2.60;99.90
18658;DHT22;9458;50.942;5.074;2022-12-18T01:16:50;-2.60;99.90
18658;DHT22;9458;50.942;5.074;2022-12-18T01:19:19;-2.60;99.90
18658;DHT22;9458;50.942;5.074;2022-12-18T01:21:47;-2.60;99.90
18658;DHT22;9458;50.942;5.074;2022-12-18T01:24:17;-2.50;99.90
18658;DHT22;9458;50.942;5.074;2022-12-18T01:26:45;-2.50;99.90
18658;DHT22;9458;50.942;5.074;2022-12-18T01:29:14;-2.50;99.90
18658;DHT22;9458;50.942;5.074;2022-12-18T01:31:42;-2.50;99.90
18658;DHT22;9458;50.942;5.074;2022-12-18T01:34:11;-2.60;99.90
18658;DHT22;9458;50.942;5.074;2022-12-18T01:36:48;-2.60;99.90
18658;DHT22;9458;50.942;5.074;2022-12-18T01:39:29;-2.50;99.90
18658;DHT22;9458;50.942;5.074;2022-12-18T01:42:00;-2.50;99.90
18658;DHT22;9458;50.942;5.074;2022-12-18T01:44:57;-2.60;99.90
18658;DHT22;9458;50.942;5.074;2022-12-18T01:47:29;-2.60;99.90
18658;DHT22;9458;50.942;5.074;2022-12-18T01:50:00;-2.60;99.90
18658;DHT22;9458;50.942;5.074;2022-12-18T01:52:35;-2.50;99.90
18658;DHT22;9458;50.942;5.074;2022-12-18T01:55:06;-2.50;99.90
18658;DHT22;9458;50.942;5.074;2022-12-18T01:57:35;-2.50;99.90
18658;DHT22;9458;50.942;5.074;2022-12-18T02:00:09;-2.50;99.90
18658;DHT22;9458;50.942;5.074;2022-12-18T02:02:39;-2.50;99.90
18658;DHT22;9458;50.942;5.074;2022-12-18T02:05:09;-2.40;99.90
18658;DHT22;9458;50.942;5.074;2022-12-18T02:07:45;-2.50;99.90
18658;DHT22;9458;50.942;5.074;2022-12-18T02:10:22;-2.50;99.90
18658;DHT22;9458;50.942;5.074;2022-12-18T02:12:57;-2.60;99.90
18658;DHT22;9458;50.942;5.074;2022-12-18T02:15:34;-2.60;99.90
18658;DHT22;9458;50.942;5.074;2022-12-18T02:18:06;-2.60;99.90
18658;DHT22;9458;50.942;5.074;2022-12-18T02:20:38;-2.50;99.90
18658;DHT22;9458;50.942;5.074;2022-12-18T02:23:16;-2.60;99.90
18658;DHT22;9458;50.942;5.074;2022-12-18T02:26:14;-2.60;99.90
18658;DHT22;9458;50.942;5.074;2022-12-18T02:28:46;-2.60;99.90
18658;DHT22;9458;50.942;5.074;2022-12-18T02:31:21;-2.70;99.90
18658;DHT22;9458;50.942;5.074;2022-12-18T02:33:51;-2.70;99.90
18658;DHT22;9458;50.942;5.074;2022-12-18T02:36:22;-2.70;99.90
18658;DHT22;9458;50.942;5.074;2022-12-18T02:38:52;-2.70;99.90
18658;DHT22;9458;50.942;5.074;2022-12-18T02:41:30;-2.70;99.90
18658;DHT22;9458;50.942;5.074;2022-12-18T02:44:00;-2.60;99.90
18658;DHT22;9458;50.942;5.074;2022-12-18T02:46:32;-2.70;99.90
18658;DHT22;9458;50.942;5.074;2022-12-18T02:49:12;-2.70;99.90
18658;DHT22;9458;50.942;5.074;2022-12-18T02:51:50;-2.70;99.90
18658;DHT22;9458;50.942;5.074;2022-12-18T02:54:28;-2.70;99.90
18658;DHT22;9458;50.942;5.074;2022-12-18T02:57:13;-2.70;99.90
18658;DHT22;9458;50.942;5.074;2022-12-18T02:59:49;-2.70;99.90
18658;DHT22;9458;50.942;5.074;2022-12-18T03:02:23;-2.70;99.90
18658;DHT22;9458;50.942;5.074;2022-12-18T03:05:00;-2.70;99.90
18658;DHT22;9458;50.942;5.074;2022-12-18T03:07:35;-2.70;99.90
18658;DHT22;9458;50.942;5.074;2022-12-18T03:10:07;-2.70;99.90
18658;DHT22;9458;50.942;5.074;2022-12-18T03:12:43;-2.70;99.90
18658;DHT22;9458;50.942;5.074;2022-12-18T03:15:16;-2.70;99.90
18658;DHT22;9458;50.942;5.074;2022-12-18T03:17:51;-2.60;99.90
18658;DHT22;9458;50.942;5.074;2022-12-18T03:20:21;-2.60;99.90
18658;DHT22;9458;50.942;5.074;2022-12-18T03:22:53;-2.70;99.90
18658;DHT22;9458;50.942;5.074;2022-12-18T03:25:22;-2.70;99.90
18658;DHT22;9458;50.942;5.074;2022-12-18T03:27:55;-2.70;99.90
18658;DHT22;9458;50.942;5.074;2022-12-18T03:30:23;-2.70;99.90
18658;DHT22;9458;50.942;5.074;2022-12-18T03:32:56;-2.80;99.90
18658;DHT22;9458;50.942;5.074;2022-12-18T03:35:28;-2.80;99.90
18658;DHT22;9458;50.942;5.074;2022-12-18T03:37:58;-2.70;99.90
18658;DHT22;9458;50.942;5.074;2022-12-18T03:40:29;-2.80;99.90
18658;DHT22;9458;50.942;5.074;2022-12-18T03:43:05;-2.80;99.90
18658;DHT22;9458;50.942;5.074;2022-12-18T03:45:38;-2.70;99.90
18658;DHT22;9458;50.942;5.074;2022-12-18T03:48:14;-2.80;99.90
18658;DHT22;9458;50.942;5.074;2022-12-18T03:50:46;-2.80;99.90
18658;DHT22;9458;50.942;5.074;2022-12-18T03:53:24;-2.80;99.90
18658;DHT22;9458;50.942;5.074;2022-12-18T03:56:00;-2.70;99.90
18658;DHT22;9458;50.942;5.074;2022-12-18T03:58:33;-2.70;99.90
18658;DHT22;9458;50.942;5.074;2022-12-18T04:01:04;-2.70;99.90
18658;DHT22;9458;50.942;5.074;2022-12-18T04:03:36;-2.70;99.90
18658;DHT22;9458;50.942;5.074;2022-12-18T04:06:06;-2.80;99.90
18658;DHT22;9458;50.942;5.074;2022-12-18T04:08:35;-2.80;99.90
18658;DHT22;9458;50.942;5.074;2022-12-18T04:11:03;-2.90;99.90
18658;DHT22;9458;50.942;5.074;2022-12-18T04:13:36;-2.90;99.90
18658;DHT22;9458;50.942;5.074;2022-12-18T04:16:04;-2.90;99.90
18658;DHT22;9458;50.942;5.074;2022-12-18T04:18:33;-3.00;99.90
18658;DHT22;9458;50.942;5.074;2022-12-18T04:21:01;-2.90;99.90
18658;DHT22;9458;50.942;5.074;2022-12-18T04:23:29;-3.00;99.90
18658;DHT22;9458;50.942;5.074;2022-12-18T04:25:57;-3.00;99.90
18658;DHT22;9458;50.942;5.074;2022-12-18T04:28:25;-3.00;99.90
18658;DHT22;9458;50.942;5.074;2022-12-18T04:30:55;-3.10;99.90
18658;DHT22;9458;50.942;5.074;2022-12-18T04:33:22;-3.00;99.90
18658;DHT22;9458;50.942;5.074;2022-12-18T04:35:50;-3.00;99.90
18658;DHT22;9458;50.942;5.074;2022-12-18T04:38:18;-3.10;99.90
18658;DHT22;9458;50.942;5.074;2022-12-18T04:40:46;-3.00;99.90
18658;DHT22;9458;50.942;5.074;2022-12-18T04:43:14;-3.00;99.90
18658;DHT22;9458;50.942;5.074;2022-12-18T04:45:42;-3.00;99.90
18658;DHT22;9458;50.942;5.074;2022-12-18T04:48:10;-3.00;99.90
18658;DHT22;9458;50.942;5.074;2022-12-18T04:50:39;-2.90;99.90
18658;DHT22;9458;50.942;5.074;2022-12-18T04:53:08;-3.00;99.90
18658;DHT22;9458;50.942;5.074;2022-12-18T04:55:37;-3.00;99.90
18658;DHT22;9458;50.942;5.074;2022-12-18T04:58:05;-3.10;99.90
18658;DHT22;9458;50.942;5.074;2022-12-18T05:00:32;-3.00;99.90
18658;DHT22;9458;50.942;5.074;2022-12-18T05:03:01;-3.10;99.90
18658;DHT22;9458;50.942;5.074;2022-12-18T05:05:31;-3.10;99.90
18658;DHT22;9458;50.942;5.074;2022-12-18T05:07:59;-3.10;99.90
18658;DHT22;9458;50.942;5.074;2022-12-18T05:10:27;-3.20;99.90
18658;DHT22;9458;50.942;5.074;2022-12-18T05:12:54;-3.20;99.90
18658;DHT22;9458;50.942;5.074;2022-12-18T05:15:27;-3.20;99.90
18658;DHT22;9458;50.942;5.074;2022-12-18T05:17:56;-3.20;99.90
18658;DHT22;9458;50.942;5.074;2022-12-18T05:20:25;-3.20;99.90
18658;DHT22;9458;50.942;5.074;2022-12-18T05:22:55;-3.30;99.90
18658;DHT22;9458;50.942;5.074;2022-12-18T05:25:23;-3.30;99.90
18658;DHT22;9458;50.942;5.074;2022-12-18T05:27:51;-3.30;99.90
18658;DHT22;9458;50.942;5.074;2022-12-18T05:30:20;-3.30;99.90
18658;DHT22;9458;50.942;5.074;2022-12-18T05:32:48;-3.30;99.90
18658;DHT22;9458;50.942;5.074;2022-12-18T05:35:16;-3.30;99.90
18658;DHT22;9458;50.942;5.074;2022-12-18T05:37:44;-3.30;99.90
18658;DHT22;9458;50.942;5.074;2022-12-18T05:40:14;-3.30;99.90
18658;DHT22;9458;50.942;5.074;2022-12-18T05:42:41;-3.30;99.90
18658;DHT22;9458;50.942;5.074;2022-12-18T05:45:10;-3.40;99.90
18658;DHT22;9458;50.942;5.074;2022-12-18T05:47:38;-3.40;99.90
18658;DHT22;9458;50.942;5.074;2022-12-18T05:50:07;-3.30;99.90
18658;DHT22;9458;50.942;5.074;2022-12-18T05:52:35;-3.40;99.90
18658;DHT22;9458;50.942;5.074;2022-12-18T05:55:04;-3.30;99.90
18658;DHT22;9458;50.942;5.074;2022-12-18T05:57:34;-3.30;99.90
18658;DHT22;9458;50.942;5.074;2022-12-18T06:00:02;-3.30;99.90
18658;DHT22;9458;50.942;5.074;2022-12-18T06:02:31;-3.30;99.90
18658;DHT22;9458;50.942;5.074;2022-12-18T06:04:59;-3.30;99.90
18658;DHT22;9458;50.942;5.074;2022-12-18T06:07:28;-3.30;99.90
18658;DHT22;9458;50.942;5.074;2022-12-18T06:09:56;-3.30;99.90
18658;DHT22;9458;50.942;5.074;2022-12-18T06:12:24;-3.30;99.90
18658;DHT22;9458;50.942;5.074;2022-12-18T06:14:53;-3.30;99.90
18658;DHT22;9458;50.942;5.074;2022-12-18T06:17:21;-3.30;99.90
18658;DHT22;9458;50.942;5.074;2022-12-18T06:19:50;-3.40;99.90
18658;DHT22;9458;50.942;5.074;2022-12-18T06:22:18;-3.30;99.90
18658;DHT22;9458;50.942;5.074;2022-12-18T06:24:46;-3.30;99.90
18658;DHT22;9458;50.942;5.074;2022-12-18T06:27:14;-3.30;99.90
18658;DHT22;9458;50.942;5.074;2022-12-18T06:29:42;-3.40;99.90
18658;DHT22;9458;50.942;5.074;2022-12-18T06:32:11;-3.30;99.90
18658;DHT22;9458;50.942;5.074;2022-12-18T06:34:40;-3.40;99.90
18658;DHT22;9458;50.942;5.074;2022-12-18T06:37:08;-3.40;99.90
18658;DHT22;9458;50.942;5.074;2022-12-18T06:39:36;-3.40;99.90
18658;DHT22;9458;50.942;5.074;2022-12-18T06:42:04;-3.40;99.90
18658;DHT22;9458;50.942;5.074;2022-12-18T06:44:32;-3.40;99.90
18658;DHT22;9458;50.942;5.074;2022-12-18T06:47:01;-3.40;99.90
18658;DHT22;9458;50.942;5.074;2022-12-18T06:49:30;-3.40;99.90
18658;DHT22;9458;50.942;5.074;2022-12-18T06:51:57;-3.40;99.90
18658;DHT22;9458;50.942;5.074;2022-12-18T06:54:25;-3.40;99.90
18658;DHT22;9458;50.942;5.074;2022-12-18T06:56:54;-3.40;99.90
18658;DHT22;9458;50.942;5.074;2022-12-18T06:59:21;-3.40;99.90
18658;DHT22;9458;50.942;5.074;2022-12-18T07:01:49;-3.40;99.90
18658;DHT22;9458;50.942;5.074;2022-12-18T07:04:18;-3.40;99.90
18658;DHT22;9458;50.942;5.074;2022-12-18T07:06:48;-3.50;99.90
18658;DHT22;9458;50.942;5.074;2022-12-18T07:09:17;-3.50;99.90
18658;DHT22;9458;50.942;5.074;2022-12-18T07:11:45;-3.50;99.90
18658;DHT22;9458;50.942;5.074;2022-12-18T07:14:14;-3.50;99.90
18658;DHT22;9458;50.942;5.074;2022-12-18T07:16:42;-3.40;99.90
18658;DHT22;9458;50.942;5.074;2022-12-18T07:19:10;-3.40;99.90
18658;DHT22;9458;50.942;5.074;2022-12-18T07:21:38;-3.40;99.90
18658;DHT22;9458;50.942;5.074;2022-12-18T07:24:08;-3.40;99.90
18658;DHT22;9458;50.942;5.074;2022-12-18T07:26:35;-3.40;99.90
18658;DHT22;9458;50.942;5.074;2022-12-18T07:29:03;-3.50;99.90
18658;DHT22;9458;50.942;5.074;2022-12-18T07:31:31;-3.40;99.90
18658;DHT22;9458;50.942;5.074;2022-12-18T07:33:59;-3.30;99.90
18658;DHT22;9458;50.942;5.074;2022-12-18T07:36:27;-3.50;99.90
18658;DHT22;9458;50.942;5.074;2022-12-18T07:38:55;-3.40;99.90
18658;DHT22;9458;50.942;5.074;2022-12-18T07:41:25;-3.30;99.90
18658;DHT22;9458;50.942;5.074;2022-12-18T07:43:53;-3.30;99.90
18658;DHT22;9458;50.942;5.074;2022-12-18T07:46:21;-3.30;99.90
18658;DHT22;9458;50.942;5.074;2022-12-18T07:48:49;-3.30;99.90
18658;DHT22;9458;50.942;5.074;2022-12-18T07:51:17;-3.20;99.90
18658;DHT22;9458;50.942;5.074;2022-12-18T07:53:46;-3.20;99.90
18658;DHT22;9458;50.942;5.074;2022-12-18T07:56:14;-3.20;99.90
18658;DHT22;9458;50.942;5.074;2022-12-18T07:58:47;-3.10;99.90
18658;DHT22;9458;50.942;5.074;2022-12-18T08:01:16;-3.10;99.90
18658;DHT22;9458;50.942;5.074;2022-12-18T08:03:45;-3.00;99.90
18658;DHT22;9458;50.942;5.074;2022-12-18T08:06:15;-2.90;99.90
18658;DHT22;9458;50.942;5.074;2022-12-18T08:08:43;-2.90;99.90
18658;DHT22;9458;50.942;5.074;2022-12-18T08:11:12;-2.70;99.90
18658;DHT22;9458;50.942;5.074;2022-12-18T08:13:40;-2.70;99.90
18658;DHT22;9458;50.942;5.074;2022-12-18T08:16:12;-2.60;99.90
18658;DHT22;9458;50.942;5.074;2022-12-18T08:18:40;-2.50;99.90
18658;DHT22;9458;50.942;5.074;2022-12-18T08:21:08;-2.30;99.90
18658;DHT22;9458;50.942;5.074;2022-12-18T08:23:38;-2.10;99.90
18658;DHT22;9458;50.942;5.074;2022-12-18T08:26:07;-2.10;99.90
18658;DHT22;9458;50.942;5.074;2022-12-18T08:28:35;-1.90;99.90
18658;DHT22;9458;50.942;5.074;2022-12-18T08:31:04;-1.80;99.90
18658;DHT22;9458;50.942;5.074;2022-12-18T08:33:34;-1.60;99.90
18658;DHT22;9458;50.942;5.074;2022-12-18T08:36:03;-1.50;99.90
18658;DHT22;9458;50.942;5.074;2022-12-18T08:38:32;-1.40;99.90
18658;DHT22;9458;50.942;5.074;2022-12-18T08:41:00;-1.20;99.90
18658;DHT22;9458;50.942;5.074;2022-12-18T08:43:29;-0.90;99.90
18658;DHT22;9458;50.942;5.074;2022-12-18T08:46:13;-0.70;99.90
18658;DHT22;9458;50.942;5.074;2022-12-18T08:48:46;-0.40;99.90
18658;DHT22;9458;50.942;5.074;2022-12-18T08:51:16;-0.20;99.90
18658;DHT22;9458;50.942;5.074;2022-12-18T08:53:44;0.20;99.90
18658;DHT22;9458;50.942;5.074;2022-12-18T08:56:12;0.40;99.90
18658;DHT22;9458;50.942;5.074;2022-12-18T08:58:42;0.30;99.90
18658;DHT22;9458;50.942;5.074;2022-12-18T09:01:12;0.30;99.90
18658;DHT22;9458;50.942;5.074;2022-12-18T09:03:40;0.00;99.90
18658;DHT22;9458;50.942;5.074;2022-12-18T09:06:13;-0.20;99.90
18658;DHT22;9458;50.942;5.074;2022-12-18T09:08:41;-0.40;99.90
18658;DHT22;9458;50.942;5.074;2022-12-18T09:11:13;-0.50;99.90
18658;DHT22;9458;50.942;5.074;2022-12-18T09:13:42;-0.60;99.90
18658;DHT22;9458;50.942;5.074;2022-12-18T09:16:10;-0.60;99.90
18658;DHT22;9458;50.942;5.074;2022-12-18T09:18:38;-0.70;99.90
18658;DHT22;9458;50.942;5.074;2022-12-18T09:21:12;-0.70;99.90
18658;DHT22;9458;50.942;5.074;2022-12-18T09:23:41;-0.70;99.90
18658;DHT22;9458;50.942;5.074;2022-12-18T09:26:10;-0.60;99.90
18658;DHT22;9458;50.942;5.074;2022-12-18T09:28:42;-0.70;99.90
18658;DHT22;9458;50.942;5.074;2022-12-18T09:31:15;-0.70;99.90
18658;DHT22;9458;50.942;5.074;2022-12-18T09:33:44;-0.60;99.90
18658;DHT22;9458;50.942;5.074;2022-12-18T09:36:18;-0.60;99.90
18658;DHT22;9458;50.942;5.074;2022-12-18T09:39:01;-0.60;99.90
18658;DHT22;9458;50.942;5.074;2022-12-18T09:41:46;-0.60;99.90
18658;DHT22;9458;50.942;5.074;2022-12-18T09:44:20;-0.50;99.90
18658;DHT22;9458;50.942;5.074;2022-12-18T09:46:56;-0.50;99.90
18658;DHT22;9458;50.942;5.074;2022-12-18T09:49:28;-0.50;99.90
18658;DHT22;9458;50.942;5.074;2022-12-18T09:52:02;-0.40;99.90
18658;DHT22;9458;50.942;5.074;2022-12-18T09:54:36;-0.50;99.90
18658;DHT22;9458;50.942;5.074;2022-12-18T09:57:06;-0.50;99.90
18658;DHT22;9458;50.942;5.074;2022-12-18T09:59:36;-0.60;99.90
18658;DHT22;9458;50.942;5.074;2022-12-18T10:02:14;-0.60;99.90
18658;DHT22;9458;50.942;5.074;2022-12-18T10:04:43;-0.50;99.90
18658;DHT22;9458;50.942;5.074;2022-12-18T10:07:17;-0.50;99.90
18658;DHT22;9458;50.942;5.074;2022-12-18T10:09:55;-0.50;99.90
18658;DHT22;9458;50.942;5.074;2022-12-18T10:12:35;-0.50;99.90
18658;DHT22;9458;50.942;5.074;2022-12-18T10:15:10;-0.50;99.90
18658;DHT22;9458;50.942;5.074;2022-12-18T10:20:29;-0.40;99.90
18658;DHT22;9458;50.942;5.074;2022-12-18T10:23:09;-0.40;99.90
18658;DHT22;9458;50.942;5.074;2022-12-18T10:25:50;-0.40;99.90
18658;DHT22;9458;50.942;5.074;2022-12-18T10:28:20;-0.30;99.90
18658;DHT22;9458;50.942;5.074;2022-12-18T10:30:48;-0.30;99.90
18658;DHT22;9458;50.942;5.074;2022-12-18T10:33:18;-0.30;99.90
18658;DHT22;9458;50.942;5.074;2022-12-18T10:35:48;-0.30;99.90
18658;DHT22;9458;50.942;5.074;2022-12-18T10:38:35;-0.30;99.90
18658;DHT22;9458;50.942;5.074;2022-12-18T10:41:05;-0.30;99.90
18658;DHT22;9458;50.942;5.074;2022-12-18T10:43:36;-0.20;99.90
18658;DHT22;9458;50.942;5.074;2022-12-18T10:46:12;-0.20;99.90
18658;DHT22;9458;50.942;5.074;2022-12-18T10:48:52;-0.10;99.90
18658;DHT22;9458;50.942;5.074;2022-12-18T10:51:23;-0.10;99.90
18658;DHT22;9458;50.942;5.074;2022-12-18T10:53:57;-0.10;99.90
18658;DHT22;9458;50.942;5.074;2022-12-18T10:56:27;-0.10;99.90
18658;DHT22;9458;50.942;5.074;2022-12-18T10:58:58;-0.10;99.90
18658;DHT22;9458;50.942;5.074;2022-12-18T11:01:28;-0.10;99.90
18658;DHT22;9458;50.942;5.074;2022-12-18T11:04:02;-0.10;99.90
18658;DHT22;9458;50.942;5.074;2022-12-18T11:06:52;0.00;99.90
18658;DHT22;9458;50.942;5.074;2022-12-18T11:09:26;0.00;99.90
18658;DHT22;9458;50.942;5.074;2022-12-18T11:19:41;0.10;99.90
18658;DHT22;9458;50.942;5.074;2022-12-18T11:22:19;0.00;99.90
18658;DHT22;9458;50.942;5.074;2022-12-18T11:24:56;0.10;99.90
18658;DHT22;9458;50.942;5.074;2022-12-18T11:27:25;0.10;99.90
18658;DHT22;9458;50.942;5.074;2022-12-18T11:29:53;0.10;99.90
18658;DHT22;9458;50.942;5.074;2022-12-18T11:32:29;0.10;99.90
18658;DHT22;9458;50.942;5.074;2022-12-18T11:35:03;0.20;99.90
18658;DHT22;9458;50.942;5.074;2022-12-18T11:37:32;0.20;99.90
18658;DHT22;9458;50.942;5.074;2022-12-18T11:40:09;0.20;99.90
18658;DHT22;9458;50.942;5.074;2022-12-18T11:42:43;0.30;99.90
18658;DHT22;9458;50.942;5.074;2022-12-18T11:45:29;0.40;99.90
18658;DHT22;9458;50.942;5.074;2022-12-18T11:48:02;0.40;99.90
18658;DHT22;9458;50.942;5.074;2022-12-18T11:50:38;0.40;99.90
18658;DHT22;9458;50.942;5.074;2022-12-18T11:53:40;0.40;99.90
18658;DHT22;9458;50.942;5.074;2022-12-18T11:56:26;0.40;99.90
18658;DHT22;9458;50.942;5.074;2022-12-18T11:59:02;0.50;99.90
18658;DHT22;9458;50.942;5.074;2022-12-18T12:01:41;0.50;99.90
18658;DHT22;9458;50.942;5.074;2022-12-18T12:04:31;0.60;99.90
18658;DHT22;9458;50.942;5.074;2022-12-18T12:10:13;0.60;99.90
18658;DHT22;9458;50.942;5.074;2022-12-18T12:13:00;0.60;99.90
18658;DHT22;9458;50.942;5.074;2022-12-18T12:15:38;0.70;99.90
18658;DHT22;9458;50.942;5.074;2022-12-18T12:18:27;0.70;99.90
18658;DHT22;9458;50.942;5.074;2022-12-18T12:21:06;0.70;99.90
18658;DHT22;9458;50.942;5.074;2022-12-18T12:23:45;0.70;99.90
18658;DHT22;9458;50.942;5.074;2022-12-18T12:26:39;0.70;99.90
18658;DHT22;9458;50.942;5.074;2022-12-18T12:37:22;0.80;99.90
18658;DHT22;9458;50.942;5.074;2022-12-18T12:40:02;0.80;99.90
18658;DHT22;9458;50.942;5.074;2022-12-18T12:42:47;0.90;99.90
18658;DHT22;9458;50.942;5.074;2022-12-18T12:45:57;0.90;99.90
18658;DHT22;9458;50.942;5.074;2022-12-18T12:48:55;0.90;99.90
18658;DHT22;9458;50.942;5.074;2022-12-18T12:51:32;1.00;99.90
18658;DHT22;9458;50.942;5.074;2022-12-18T13:12:19;1.10;99.90
18658;DHT22;9458;50.942;5.074;2022-12-18T13:16:03;1.10;99.90
18658;DHT22;9458;50.942;5.074;2022-12-18T13:18:28;1.10;99.90
18658;DHT22;9458;50.942;5.074;2022-12-18T13:21:16;1.20;99.90
18658;DHT22;9458;50.942;5.074;2022-12-18T13:24:22;1.20;99.90
18658;DHT22;9458;50.942;5.074;2022-12-18T13:41:20;1.30;99.90
18658;DHT22;9458;50.942;5.074;2022-12-18T13:44:20;1.30;99.90
18658;DHT22;9458;50.942;5.074;2022-12-18T13:47:27;1.30;99.90
18658;DHT22;9458;50.942;5.074;2022-12-18T13:50:38;1.30;99.90
18658;DHT22;9458;50.942;5.074;2022-12-18T14:34:31;1.30;99.90
18658;DHT22;9458;50.942;5.074;2022-12-18T14:37:01;1.40;99.90
18658;DHT22;9458;50.942;5.074;2022-12-18T14:39:30;1.30;99.90
18658;DHT22;9458;50.942;5.074;2022-12-18T14:42:02;1.30;99.90
18658;DHT22;9458;50.942;5.074;2022-12-18T14:44:31;1.40;99.90
18658;DHT22;9458;50.942;5.074;2022-12-18T14:47:00;1.30;99.90
18658;DHT22;9458;50.942;5.074;2022-12-18T14:49:34;1.30;99.90
18658;DHT22;9458;50.942;5.074;2022-12-18T14:52:05;1.40;99.90
18658;DHT22;9458;50.942;5.074;2022-12-18T14:54:35;1.30;99.90
18658;DHT22;9458;50.942;5.074;2022-12-18T14:57:22;1.30;99.90
18658;DHT22;9458;50.942;5.074;2022-12-18T14:59:53;1.30;99.90
18658;DHT22;9458;50.942;5.074;2022-12-18T15:02:22;1.30;99.90
18658;DHT22;9458;50.942;5.074;2022-12-18T15:05:04;1.20;99.90
18658;DHT22;9458;50.942;5.074;2022-12-18T15:07:41;1.30;99.90
18658;DHT22;9458;50.942;5.074;2022-12-18T15:10:13;1.30;99.90
18658;DHT22;9458;50.942;5.074;2022-12-18T15:12:47;1.30;99.90
18658;DHT22;9458;50.942;5.074;2022-12-18T15:15:49;1.20;99.90
18658;DHT22;9458;50.942;5.074;2022-12-18T15:18:26;1.20;99.90
18658;DHT22;9458;50.942;5.074;2022-12-18T15:20:59;1.20;99.90
18658;DHT22;9458;50.942;5.074;2022-12-18T15:23:36;1.20;99.90
18658;DHT22;9458;50.942;5.074;2022-12-18T15:26:05;1.20;99.90
18658;DHT22;9458;50.942;5.074;2022-12-18T15:28:36;1.20;99.90
18658;DHT22;9458;50.942;5.074;2022-12-18T15:34:14;1.30;99.90
18658;DHT22;9458;50.942;5.074;2022-12-18T15:36:50;1.20;99.90
18658;DHT22;9458;50.942;5.074;2022-12-18T15:39:18;1.30;99.90
18658;DHT22;9458;50.942;5.074;2022-12-18T15:41:45;1.30;99.90
18658;DHT22;9458;50.942;5.074;2022-12-18T15:44:28;1.30;99.90
18658;DHT22;9458;50.942;5.074;2022-12-18T15:46:56;1.30;99.90
18658;DHT22;9458;50.942;5.074;2022-12-18T15:49:24;1.40;99.90
18658;DHT22;9458;50.942;5.074;2022-12-18T15:51:57;1.40;99.90
18658;DHT22;9458;50.942;5.074;2022-12-18T15:54:27;1.40;99.90
18658;DHT22;9458;50.942;5.074;2022-12-18T15:57:13;1.40;99.90
18658;DHT22;9458;50.942;5.074;2022-12-18T15:59:55;1.40;99.90
18658;DHT22;9458;50.942;5.074;2022-12-18T16:02:24;1.40;99.90
18658;DHT22;9458;50.942;5.074;2022-12-18T16:04:53;1.40;99.90
18658;DHT22;9458;50.942;5.074;2022-12-18T16:07:22;1.40;99.90
18658;DHT22;9458;50.942;5.074;2022-12-18T16:09:50;1.50;99.90
18658;DHT22;9458;50.942;5.074;2022-12-18T16:12:20;1.50;99.90
18658;DHT22;9458;50.942;5.074;2022-12-18T16:14:50;1.50;99.90
18658;DHT22;9458;50.942;5.074;2022-12-18T16:17:19;1.50;99.90
18658;DHT22;9458;50.942;5.074;2022-12-18T16:19:48;1.60;99.90
18658;DHT22;9458;50.942;5.074;2022-12-18T16:22:19;1.50;99.90
18658;DHT22;9458;50.942;5.074;2022-12-18T16:24:51;1.50;99.90
18658;DHT22;9458;50.942;5.074;2022-12-18T16:27:22;1.60;99.90
18658;DHT22;9458;50.942;5.074;2022-12-18T16:29:52;1.60;99.90
18658;DHT22;9458;50.942;5.074;2022-12-18T16:35:10;1.60;99.90
18658;DHT22;9458;50.942;5.074;2022-12-18T16:37:38;1.60;99.90
18658;DHT22;9458;50.942;5.074;2022-12-18T16:40:12;1.70;99.90
18658;DHT22;9458;50.942;5.074;2022-12-18T16:42:44;1.60;99.90
18658;DHT22;9458;50.942;5.074;2022-12-18T16:45:15;1.70;99.90
18658;DHT22;9458;50.942;5.074;2022-12-18T16:47:47;1.60;99.90
18658;DHT22;9458;50.942;5.074;2022-12-18T16:50:16;1.60;99.90
18658;DHT22;9458;50.942;5.074;2022-12-18T16:52:49;1.60;99.90
18658;DHT22;9458;50.942;5.074;2022-12-18T16:57:55;1.60;99.90
18658;DHT22;9458;50.942;5.074;2022-12-18T17:00:23;1.70;99.90
18658;DHT22;9458;50.942;5.074;2022-12-18T17:02:51;1.70;99.90
18658;DHT22;9458;50.942;5.074;2022-12-18T17:05:51;1.70;99.90
18658;DHT22;9458;50.942;5.074;2022-12-18T17:08:36;1.70;99.90
18658;DHT22;9458;50.942;5.074;2022-12-18T17:11:07;1.80;99.90
18658;DHT22;9458;50.942;5.074;2022-12-18T17:13:52;1.70;99.90
18658;DHT22;9458;50.942;5.074;2022-12-18T17:17:07;1.80;99.90
18658;DHT22;9458;50.942;5.074;2022-12-18T17:19:35;1.80;99.90
18658;DHT22;9458;50.942;5.074;2022-12-18T17:22:06;1.70;99.90
18658;DHT22;9458;50.942;5.074;2022-12-18T17:24:35;1.80;99.90
18658;DHT22;9458;50.942;5.074;2022-12-18T17:27:13;1.80;99.90
18658;DHT22;9458;50.942;5.074;2022-12-18T17:29:42;1.80;99.90
18658;DHT22;9458;50.942;5.074;2022-12-18T17:32:12;1.80;99.90
18658;DHT22;9458;50.942;5.074;2022-12-18T17:34:40;1.80;99.90
18658;DHT22;9458;50.942;5.074;2022-12-18T17:37:09;1.80;99.90
18658;DHT22;9458;50.942;5.074;2022-12-18T17:39:38;1.90;99.90
18658;DHT22;9458;50.942;5.074;2022-12-18T17:42:07;1.90;99.90
18658;DHT22;9458;50.942;5.074;2022-12-18T17:44:37;1.90;99.90
18658;DHT22;9458;50.942;5.074;2022-12-18T17:47:05;1.90;99.90
18658;DHT22;9458;50.942;5.074;2022-12-18T17:49:37;1.90;99.90
18658;DHT22;9458;50.942;5.074;2022-12-18T17:52:05;2.00;99.90
18658;DHT22;9458;50.942;5.074;2022-12-18T17:54:34;1.90;99.90
18658;DHT22;9458;50.942;5.074;2022-12-18T17:57:04;1.90;99.90
18658;DHT22;9458;50.942;5.074;2022-12-18T17:59:32;1.90;99.90
18658;DHT22;9458;50.942;5.074;2022-12-18T20:16:57;2.30;99.90
18658;DHT22;9458;50.942;5.074;2022-12-18T20:19:26;2.40;99.90
18658;DHT22;9458;50.942;5.074;2022-12-18T20:21:53;2.40;99.90
18658;DHT22;9458;50.942;5.074;2022-12-18T20:24:21;2.40;99.90
18658;DHT22;9458;50.942;5.074;2022-12-18T20:26:50;2.40;99.90